Terminal Aerodrome Forecast
Issued by NWS Cleveland, OH

Home | Current Version | Previous Version | Graphics & Text | Print | Product List | Glossary On
Versions: 1 2 3 4 5 6 7 8 9 10 11 12 13 14 15 16 17
000
FTUS41 KCLE 272300
TAFCAK
TAF
KCAK 272340Z 2800/2824 36014KT 3SM -SN SCT015 OVC020
      TEMPO 2800/2803 6SM -SN BKN015
     FM280400 34010KT P6SM OVC035
     FM281500 33012KT P6SM SCT035=

USA.gov is the U.S. government's official web portal to all federal, state and local government web resources and services.